sensor_id;sensor_type;location;lat;lon;timestamp;temperature;humidity
20891;DHT22;10605;52.968;8.844;2022-09-30T00:01:31;10.40;99.90
20891;DHT22;10605;52.968;8.844;2022-09-30T00:03:58;10.30;99.90
20891;DHT22;10605;52.968;8.844;2022-09-30T00:06:24;10.20;99.90
20891;DHT22;10605;52.968;8.844;2022-09-30T00:08:50;10.10;99.90
20891;DHT22;10605;52.968;8.844;2022-09-30T00:11:19;10.00;99.90
20891;DHT22;10605;52.968;8.844;2022-09-30T00:13:47;9.90;99.90
20891;DHT22;10605;52.968;8.844;2022-09-30T00:16:14;9.80;99.90
20891;DHT22;10605;52.968;8.844;2022-09-30T00:18:41;9.80;99.90
20891;DHT22;10605;52.968;8.844;2022-09-30T00:21:08;9.80;99.90
20891;DHT22;10605;52.968;8.844;2022-09-30T00:23:35;9.70;99.90
20891;DHT22;10605;52.968;8.844;2022-09-30T00:26:05;9.80;99.90
20891;DHT22;10605;52.968;8.844;2022-09-30T00:28:31;9.70;99.90
20891;DHT22;10605;52.968;8.844;2022-09-30T00:31:01;9.60;99.90
20891;DHT22;10605;52.968;8.844;2022-09-30T00:33:27;9.60;99.90
20891;DHT22;10605;52.968;8.844;2022-09-30T00:35:53;9.60;99.90
20891;DHT22;10605;52.968;8.844;2022-09-30T00:38:19;9.50;99.90
20891;DHT22;10605;52.968;8.844;2022-09-30T00:40:45;9.40;99.90
20891;DHT22;10605;52.968;8.844;2022-09-30T00:43:16;9.30;99.90
20891;DHT22;10605;52.968;8.844;2022-09-30T00:45:53;9.30;99.90
20891;DHT22;10605;52.968;8.844;2022-09-30T00:48:28;9.20;99.90
20891;DHT22;10605;52.968;8.844;2022-09-30T00:50:55;9.20;99.90
20891;DHT22;10605;52.968;8.844;2022-09-30T00:53:35;9.10;99.90
20891;DHT22;10605;52.968;8.844;2022-09-30T00:56:13;8.90;99.90
20891;DHT22;10605;52.968;8.844;2022-09-30T01:01:07;8.90;99.90
20891;DHT22;10605;52.968;8.844;2022-09-30T01:03:37;8.80;99.90
20891;DHT22;10605;52.968;8.844;2022-09-30T01:06:05;8.80;99.90
20891;DHT22;10605;52.968;8.844;2022-09-30T01:08:34;8.80;99.90
20891;DHT22;10605;52.968;8.844;2022-09-30T01:11:00;8.70;99.90
20891;DHT22;10605;52.968;8.844;2022-09-30T01:13:27;8.70;99.90
20891;DHT22;10605;52.968;8.844;2022-09-30T01:19:04;8.70;99.90
20891;DHT22;10605;52.968;8.844;2022-09-30T01:25:03;8.60;99.90
20891;DHT22;10605;52.968;8.844;2022-09-30T01:33:20;8.30;99.90
20891;DHT22;10605;52.968;8.844;2022-09-30T01:42:20;8.30;99.90
20891;DHT22;10605;52.968;8.844;2022-09-30T01:47:57;8.30;99.90
20891;DHT22;10605;52.968;8.844;2022-09-30T01:50:32;8.20;99.90
20891;DHT22;10605;52.968;8.844;2022-09-30T01:53:21;8.30;99.90
20891;DHT22;10605;52.968;8.844;2022-09-30T01:55:49;8.20;99.90
20891;DHT22;10605;52.968;8.844;2022-09-30T01:58:23;8.20;99.90
20891;DHT22;10605;52.968;8.844;2022-09-30T02:00:56;8.20;99.90
20891;DHT22;10605;52.968;8.844;2022-09-30T02:03:31;8.20;99.90
20891;DHT22;10605;52.968;8.844;2022-09-30T02:06:25;8.10;99.90
20891;DHT22;10605;52.968;8.844;2022-09-30T02:09:03;8.20;99.90
20891;DHT22;10605;52.968;8.844;2022-09-30T02:11:33;8.20;99.90
20891;DHT22;10605;52.968;8.844;2022-09-30T02:16:42;8.20;99.90
20891;DHT22;10605;52.968;8.844;2022-09-30T02:19:20;8.10;99.90
20891;DHT22;10605;52.968;8.844;2022-09-30T02:21:53;8.10;99.90
20891;DHT22;10605;52.968;8.844;2022-09-30T02:24:21;8.00;99.90
20891;DHT22;10605;52.968;8.844;2022-09-30T02:26:50;7.90;99.90
20891;DHT22;10605;52.968;8.844;2022-09-30T02:29:26;7.90;99.90
20891;DHT22;10605;52.968;8.844;2022-09-30T02:31:57;7.80;99.90
20891;DHT22;10605;52.968;8.844;2022-09-30T02:34:30;7.80;99.90
20891;DHT22;10605;52.968;8.844;2022-09-30T02:39:34;8.00;99.90
20891;DHT22;10605;52.968;8.844;2022-09-30T02:42:18;8.00;99.90
20891;DHT22;10605;52.968;8.844;2022-09-30T02:44:50;8.10;99.90
20891;DHT22;10605;52.968;8.844;2022-09-30T02:47:32;8.00;99.90
20891;DHT22;10605;52.968;8.844;2022-09-30T02:58:19;8.10;99.90
20891;DHT22;10605;52.968;8.844;2022-09-30T03:00:46;8.10;99.90
20891;DHT22;10605;52.968;8.844;2022-09-30T03:03:18;8.10;99.90
20891;DHT22;10605;52.968;8.844;2022-09-30T03:05:45;8.10;99.90
20891;DHT22;10605;52.968;8.844;2022-09-30T03:08:13;8.10;99.90
20891;DHT22;10605;52.968;8.844;2022-09-30T03:10:39;8.20;99.90
20891;DHT22;10605;52.968;8.844;2022-09-30T03:16:27;8.10;99.90
20891;DHT22;10605;52.968;8.844;2022-09-30T03:22:13;8.00;99.90
20891;DHT22;10605;52.968;8.844;2022-09-30T03:30:22;8.00;99.90
20891;DHT22;10605;52.968;8.844;2022-09-30T03:35:36;7.80;99.90
20891;DHT22;10605;52.968;8.844;2022-09-30T03:38:19;7.80;99.90
20891;DHT22;10605;52.968;8.844;2022-09-30T03:46:35;7.70;99.90
20891;DHT22;10605;52.968;8.844;2022-09-30T03:49:06;7.60;99.90
20891;DHT22;10605;52.968;8.844;2022-09-30T03:51:36;7.60;99.90
20891;DHT22;10605;52.968;8.844;2022-09-30T03:54:08;7.60;99.90
20891;DHT22;10605;52.968;8.844;2022-09-30T03:56:35;7.40;99.90
20891;DHT22;10605;52.968;8.844;2022-09-30T03:59:01;7.40;99.90
20891;DHT22;10605;52.968;8.844;2022-09-30T04:01:27;7.40;99.90
20891;DHT22;10605;52.968;8.844;2022-09-30T04:03:53;7.40;99.90
20891;DHT22;10605;52.968;8.844;2022-09-30T04:06:22;7.40;99.90
20891;DHT22;10605;52.968;8.844;2022-09-30T04:08:48;7.30;99.90
20891;DHT22;10605;52.968;8.844;2022-09-30T04:11:14;7.40;99.90
20891;DHT22;10605;52.968;8.844;2022-09-30T04:13:39;7.40;99.90
20891;DHT22;10605;52.968;8.844;2022-09-30T04:16:06;7.40;99.90
20891;DHT22;10605;52.968;8.844;2022-09-30T04:18:34;7.40;99.90
20891;DHT22;10605;52.968;8.844;2022-09-30T04:21:05;7.40;99.90
20891;DHT22;10605;52.968;8.844;2022-09-30T04:23:33;7.40;99.90
20891;DHT22;10605;52.968;8.844;2022-09-30T04:25:59;7.30;99.90
20891;DHT22;10605;52.968;8.844;2022-09-30T04:28:25;7.30;99.90
20891;DHT22;10605;52.968;8.844;2022-09-30T04:30:51;7.40;99.90
20891;DHT22;10605;52.968;8.844;2022-09-30T04:33:16;7.30;99.90
20891;DHT22;10605;52.968;8.844;2022-09-30T04:35:42;7.30;99.90
20891;DHT22;10605;52.968;8.844;2022-09-30T04:38:07;7.40;99.90
20891;DHT22;10605;52.968;8.844;2022-09-30T04:40:37;7.40;99.90
20891;DHT22;10605;52.968;8.844;2022-09-30T04:43:04;7.50;99.90
20891;DHT22;10605;52.968;8.844;2022-09-30T04:45:29;7.60;99.90
20891;DHT22;10605;52.968;8.844;2022-09-30T04:47:55;7.60;99.90
20891;DHT22;10605;52.968;8.844;2022-09-30T04:50:21;7.50;99.90
20891;DHT22;10605;52.968;8.844;2022-09-30T04:52:46;7.60;99.90
20891;DHT22;10605;52.968;8.844;2022-09-30T04:55:12;7.60;99.90
20891;DHT22;10605;52.968;8.844;2022-09-30T04:57:38;7.60;99.90
20891;DHT22;10605;52.968;8.844;2022-09-30T05:00:04;7.60;99.90
20891;DHT22;10605;52.968;8.844;2022-09-30T05:02:30;7.70;99.90
20891;DHT22;10605;52.968;8.844;2022-09-30T05:04:56;7.70;99.90
20891;DHT22;10605;52.968;8.844;2022-09-30T05:07:22;7.80;99.90
20891;DHT22;10605;52.968;8.844;2022-09-30T05:09:47;7.90;99.90
20891;DHT22;10605;52.968;8.844;2022-09-30T05:12:13;8.00;99.90
20891;DHT22;10605;52.968;8.844;2022-09-30T05:14:40;8.10;99.90
20891;DHT22;10605;52.968;8.844;2022-09-30T05:17:05;8.10;99.90
20891;DHT22;10605;52.968;8.844;2022-09-30T05:19:31;8.10;99.90
20891;DHT22;10605;52.968;8.844;2022-09-30T05:21:57;8.10;99.90
20891;DHT22;10605;52.968;8.844;2022-09-30T05:24:23;8.10;99.90
20891;DHT22;10605;52.968;8.844;2022-09-30T05:26:48;8.20;99.90
20891;DHT22;10605;52.968;8.844;2022-09-30T05:29:14;8.20;99.90
20891;DHT22;10605;52.968;8.844;2022-09-30T05:31:40;8.20;99.90
20891;DHT22;10605;52.968;8.844;2022-09-30T05:34:08;8.20;99.90
20891;DHT22;10605;52.968;8.844;2022-09-30T05:36:34;8.20;99.90
20891;DHT22;10605;52.968;8.844;2022-09-30T05:39:00;8.20;99.90
20891;DHT22;10605;52.968;8.844;2022-09-30T05:41:26;8.20;99.90
20891;DHT22;10605;52.968;8.844;2022-09-30T05:43:51;8.30;99.90
20891;DHT22;10605;52.968;8.844;2022-09-30T05:46:18;8.40;99.90
20891;DHT22;10605;52.968;8.844;2022-09-30T05:48:45;8.40;99.90
20891;DHT22;10605;52.968;8.844;2022-09-30T05:51:11;8.50;99.90
20891;DHT22;10605;52.968;8.844;2022-09-30T05:53:38;8.60;99.90
20891;DHT22;10605;52.968;8.844;2022-09-30T05:56:05;8.60;99.90
20891;DHT22;10605;52.968;8.844;2022-09-30T05:58:31;8.70;99.90
20891;DHT22;10605;52.968;8.844;2022-09-30T06:01:02;8.80;99.90
20891;DHT22;10605;52.968;8.844;2022-09-30T06:03:30;8.90;99.90
20891;DHT22;10605;52.968;8.844;2022-09-30T06:05:56;8.90;99.90
20891;DHT22;10605;52.968;8.844;2022-09-30T06:08:22;8.90;99.90
20891;DHT22;10605;52.968;8.844;2022-09-30T06:10:48;9.10;99.90
20891;DHT22;10605;52.968;8.844;2022-09-30T06:13:14;9.20;99.90
20891;DHT22;10605;52.968;8.844;2022-09-30T06:15:53;9.60;99.90
20891;DHT22;10605;52.968;8.844;2022-09-30T06:18:19;9.90;99.90
20891;DHT22;10605;52.968;8.844;2022-09-30T06:20:45;10.00;99.90
20891;DHT22;10605;52.968;8.844;2022-09-30T06:23:11;9.70;99.90
20891;DHT22;10605;52.968;8.844;2022-09-30T06:25:37;10.00;99.90
20891;DHT22;10605;52.968;8.844;2022-09-30T06:28:02;10.40;99.90
20891;DHT22;10605;52.968;8.844;2022-09-30T06:30:28;10.80;99.90
20891;DHT22;10605;52.968;8.844;2022-09-30T06:32:56;11.10;99.90
20891;DHT22;10605;52.968;8.844;2022-09-30T06:35:22;11.40;99.90
20891;DHT22;10605;52.968;8.844;2022-09-30T06:37:52;11.90;99.90
20891;DHT22;10605;52.968;8.844;2022-09-30T06:40:18;12.10;99.90
20891;DHT22;10605;52.968;8.844;2022-09-30T06:42:46;12.50;99.90
20891;DHT22;10605;52.968;8.844;2022-09-30T06:45:12;13.00;99.90
20891;DHT22;10605;52.968;8.844;2022-09-30T06:47:38;13.30;99.90
20891;DHT22;10605;52.968;8.844;2022-09-30T06:50:04;13.30;99.90
20891;DHT22;10605;52.968;8.844;2022-09-30T06:52:30;13.50;99.90
20891;DHT22;10605;52.968;8.844;2022-09-30T06:54:55;13.70;99.90
20891;DHT22;10605;52.968;8.844;2022-09-30T06:57:22;13.90;99.90
20891;DHT22;10605;52.968;8.844;2022-09-30T06:59:49;14.70;99.90
20891;DHT22;10605;52.968;8.844;2022-09-30T07:02:15;14.90;99.90
20891;DHT22;10605;52.968;8.844;2022-09-30T07:04:41;14.90;99.90
20891;DHT22;10605;52.968;8.844;2022-09-30T07:07:07;15.50;99.90
20891;DHT22;10605;52.968;8.844;2022-09-30T07:09:32;15.80;99.90
20891;DHT22;10605;52.968;8.844;2022-09-30T07:11:58;15.80;99.90
20891;DHT22;10605;52.968;8.844;2022-09-30T07:14:24;15.90;99.90
20891;DHT22;10605;52.968;8.844;2022-09-30T07:16:50;15.90;99.90
20891;DHT22;10605;52.968;8.844;2022-09-30T07:19:18;16.60;99.90
20891;DHT22;10605;52.968;8.844;2022-09-30T07:21:47;16.70;99.90
20891;DHT22;10605;52.968;8.844;2022-09-30T07:24:14;17.00;99.90
20891;DHT22;10605;52.968;8.844;2022-09-30T07:26:39;17.40;99.90
20891;DHT22;10605;52.968;8.844;2022-09-30T07:29:05;17.50;99.90
20891;DHT22;10605;52.968;8.844;2022-09-30T07:31:32;17.90;99.90
20891;DHT22;10605;52.968;8.844;2022-09-30T07:33:58;18.30;99.90
20891;DHT22;10605;52.968;8.844;2022-09-30T07:36:25;18.40;99.90
20891;DHT22;10605;52.968;8.844;2022-09-30T07:38:56;18.40;99.90
20891;DHT22;10605;52.968;8.844;2022-09-30T07:41:26;18.40;99.90
20891;DHT22;10605;52.968;8.844;2022-09-30T07:43:54;18.80;99.90
20891;DHT22;10605;52.968;8.844;2022-09-30T07:46:31;19.10;99.90
20891;DHT22;10605;52.968;8.844;2022-09-30T07:48:58;19.10;99.90
20891;DHT22;10605;52.968;8.844;2022-09-30T07:51:35;19.30;99.90
20891;DHT22;10605;52.968;8.844;2022-09-30T07:54:04;19.10;99.90
20891;DHT22;10605;52.968;8.844;2022-09-30T07:56:30;19.80;99.90
20891;DHT22;10605;52.968;8.844;2022-09-30T07:58:58;19.90;99.90
20891;DHT22;10605;52.968;8.844;2022-09-30T08:01:25;19.90;99.90
20891;DHT22;10605;52.968;8.844;2022-09-30T08:03:56;20.20;99.90
20891;DHT22;10605;52.968;8.844;2022-09-30T08:06:23;20.30;99.90
20891;DHT22;10605;52.968;8.844;2022-09-30T08:08:51;20.80;99.90
20891;DHT22;10605;52.968;8.844;2022-09-30T08:11:17;20.20;99.90
20891;DHT22;10605;52.968;8.844;2022-09-30T08:13:42;20.40;99.90
20891;DHT22;10605;52.968;8.844;2022-09-30T08:16:08;20.70;99.90
20891;DHT22;10605;52.968;8.844;2022-09-30T08:18:34;20.50;99.90
20891;DHT22;10605;52.968;8.844;2022-09-30T08:21:04;20.70;99.90
20891;DHT22;10605;52.968;8.844;2022-09-30T08:23:31;20.80;99.90
20891;DHT22;10605;52.968;8.844;2022-09-30T08:26:09;20.90;99.90
20891;DHT22;10605;52.968;8.844;2022-09-30T08:28:35;21.10;99.90
20891;DHT22;10605;52.968;8.844;2022-09-30T08:31:12;21.30;99.90
20891;DHT22;10605;52.968;8.844;2022-09-30T08:33:39;21.60;99.90
20891;DHT22;10605;52.968;8.844;2022-09-30T08:36:08;21.30;99.90
20891;DHT22;10605;52.968;8.844;2022-09-30T08:38:34;21.50;99.90
20891;DHT22;10605;52.968;8.844;2022-09-30T08:43:45;21.80;99.90
20891;DHT22;10605;52.968;8.844;2022-09-30T08:49:35;21.70;99.90
20891;DHT22;10605;52.968;8.844;2022-09-30T08:52:04;21.60;99.90
20891;DHT22;10605;52.968;8.844;2022-09-30T08:54:34;22.60;99.90
20891;DHT22;10605;52.968;8.844;2022-09-30T08:57:02;22.70;99.90
20891;DHT22;10605;52.968;8.844;2022-09-30T08:59:45;23.00;99.90
20891;DHT22;10605;52.968;8.844;2022-09-30T09:04:49;22.90;99.90
20891;DHT22;10605;52.968;8.844;2022-09-30T09:07:39;22.60;99.90
20891;DHT22;10605;52.968;8.844;2022-09-30T09:13:34;23.20;99.90
20891;DHT22;10605;52.968;8.844;2022-09-30T09:16:11;23.70;98.30
20891;DHT22;10605;52.968;8.844;2022-09-30T09:18:45;23.80;97.40
20891;DHT22;10605;52.968;8.844;2022-09-30T09:24:20;24.70;95.30
20891;DHT22;10605;52.968;8.844;2022-09-30T09:26:48;25.30;94.10
20891;DHT22;10605;52.968;8.844;2022-09-30T09:29:54;24.70;94.00
20891;DHT22;10605;52.968;8.844;2022-09-30T09:32:25;24.60;94.30
20891;DHT22;10605;52.968;8.844;2022-09-30T09:34:56;25.10;93.40
20891;DHT22;10605;52.968;8.844;2022-09-30T09:37:46;25.10;93.10
20891;DHT22;10605;52.968;8.844;2022-09-30T09:51:49;26.10;90.40
20891;DHT22;10605;52.968;8.844;2022-09-30T09:54:21;25.30;90.40
20891;DHT22;10605;52.968;8.844;2022-09-30T09:56:49;25.20;90.80
20891;DHT22;10605;52.968;8.844;2022-09-30T09:59:19;25.10;92.10
20891;DHT22;10605;52.968;8.844;2022-09-30T10:01:46;25.70;90.30
20891;DHT22;10605;52.968;8.844;2022-09-30T10:04:17;25.40;89.20
20891;DHT22;10605;52.968;8.844;2022-09-30T10:07:13;26.20;85.80
20891;DHT22;10605;52.968;8.844;2022-09-30T10:09:40;25.60;84.40
20891;DHT22;10605;52.968;8.844;2022-09-30T10:28:49;26.00;76.60
20891;DHT22;10605;52.968;8.844;2022-09-30T10:31:45;25.20;77.70
20891;DHT22;10605;52.968;8.844;2022-09-30T10:34:39;24.20;82.50
20891;DHT22;10605;52.968;8.844;2022-09-30T10:41:35;26.80;76.30
20891;DHT22;10605;52.968;8.844;2022-09-30T10:48:32;25.30;79.50
20891;DHT22;10605;52.968;8.844;2022-09-30T10:54:52;25.30;79.80
20891;DHT22;10605;52.968;8.844;2022-09-30T11:00:12;23.40;83.40
20891;DHT22;10605;52.968;8.844;2022-09-30T11:03:09;22.20;86.90
20891;DHT22;10605;52.968;8.844;2022-09-30T11:05:42;21.00;91.30
20891;DHT22;10605;52.968;8.844;2022-09-30T11:38:10;26.00;68.00
20891;DHT22;10605;52.968;8.844;2022-09-30T11:49:24;25.50;69.00
20891;DHT22;10605;52.968;8.844;2022-09-30T11:52:18;26.80;65.90
20891;DHT22;10605;52.968;8.844;2022-09-30T12:00:18;27.40;62.50
20891;DHT22;10605;52.968;8.844;2022-09-30T12:03:03;25.80;61.30
20891;DHT22;10605;52.968;8.844;2022-09-30T12:05:39;27.00;61.30
20891;DHT22;10605;52.968;8.844;2022-09-30T12:08:13;26.60;62.10
20891;DHT22;10605;52.968;8.844;2022-09-30T12:10:47;27.80;58.70
20891;DHT22;10605;52.968;8.844;2022-09-30T12:13:22;26.80;58.90
20891;DHT22;10605;52.968;8.844;2022-09-30T12:15:50;26.80;60.00
20891;DHT22;10605;52.968;8.844;2022-09-30T12:18:26;26.00;59.60
20891;DHT22;10605;52.968;8.844;2022-09-30T12:20:56;25.90;58.90
20891;DHT22;10605;52.968;8.844;2022-09-30T12:27:26;26.50;60.80
20891;DHT22;10605;52.968;8.844;2022-09-30T15:46:30;16.00;99.90
20891;DHT22;10605;52.968;8.844;2022-09-30T15:49:01;15.90;99.90
20891;DHT22;10605;52.968;8.844;2022-09-30T15:51:36;15.80;99.90
20891;DHT22;10605;52.968;8.844;2022-09-30T15:56:40;15.70;99.90
20891;DHT22;10605;52.968;8.844;2022-09-30T15:59:07;15.60;99.90
20891;DHT22;10605;52.968;8.844;2022-09-30T16:01:46;15.60;99.90
20891;DHT22;10605;52.968;8.844;2022-09-30T16:06:47;15.50;99.90
20891;DHT22;10605;52.968;8.844;2022-09-30T16:11:42;15.40;99.90
20891;DHT22;10605;52.968;8.844;2022-09-30T16:14:24;15.30;99.90
20891;DHT22;10605;52.968;8.844;2022-09-30T16:17:02;15.20;99.90
20891;DHT22;10605;52.968;8.844;2022-09-30T16:19:29;15.10;99.90
20891;DHT22;10605;52.968;8.844;2022-09-30T16:21:56;14.90;99.90
20891;DHT22;10605;52.968;8.844;2022-09-30T16:26:54;14.70;99.90
20891;DHT22;10605;52.968;8.844;2022-09-30T16:29:21;14.70;99.90
20891;DHT22;10605;52.968;8.844;2022-09-30T16:31:49;14.60;99.90
20891;DHT22;10605;52.968;8.844;2022-09-30T16:36:46;14.30;99.90
20891;DHT22;10605;52.968;8.844;2022-09-30T16:39:14;14.20;99.90
20891;DHT22;10605;52.968;8.844;2022-09-30T16:41:40;14.10;99.90
20891;DHT22;10605;52.968;8.844;2022-09-30T16:44:06;14.00;99.90
20891;DHT22;10605;52.968;8.844;2022-09-30T16:46:31;13.90;99.90
20891;DHT22;10605;52.968;8.844;2022-09-30T16:48:58;13.80;99.90
20891;DHT22;10605;52.968;8.844;2022-09-30T16:51:24;13.70;99.90
20891;DHT22;10605;52.968;8.844;2022-09-30T16:53:49;13.70;99.90
20891;DHT22;10605;52.968;8.844;2022-09-30T16:56:18;13.60;99.90
20891;DHT22;10605;52.968;8.844;2022-09-30T16:58:44;13.60;99.90
20891;DHT22;10605;52.968;8.844;2022-09-30T17:01:20;13.50;99.90
20891;DHT22;10605;52.968;8.844;2022-09-30T17:03:46;13.30;99.90
20891;DHT22;10605;52.968;8.844;2022-09-30T17:06:13;13.20;99.90
20891;DHT22;10605;52.968;8.844;2022-09-30T17:08:39;13.10;99.90
20891;DHT22;10605;52.968;8.844;2022-09-30T17:11:05;13.00;99.90
20891;DHT22;10605;52.968;8.844;2022-09-30T17:13:31;12.90;99.90
20891;DHT22;10605;52.968;8.844;2022-09-30T17:15:58;12.80;99.90
20891;DHT22;10605;52.968;8.844;2022-09-30T17:18:26;12.70;99.90
20891;DHT22;10605;52.968;8.844;2022-09-30T17:20:52;12.60;99.90
20891;DHT22;10605;52.968;8.844;2022-09-30T17:23:20;12.50;99.90
20891;DHT22;10605;52.968;8.844;2022-09-30T17:25:46;12.50;99.90
20891;DHT22;10605;52.968;8.844;2022-09-30T17:28:12;12.50;99.90
20891;DHT22;10605;52.968;8.844;2022-09-30T17:30:38;12.40;99.90
20891;DHT22;10605;52.968;8.844;2022-09-30T17:33:06;12.30;99.90
20891;DHT22;10605;52.968;8.844;2022-09-30T17:35:35;12.20;99.90
20891;DHT22;10605;52.968;8.844;2022-09-30T17:38:07;12.20;99.90
20891;DHT22;10605;52.968;8.844;2022-09-30T17:40:33;12.20;99.90
20891;DHT22;10605;52.968;8.844;2022-09-30T17:43:18;12.10;99.90
20891;DHT22;10605;52.968;8.844;2022-09-30T17:45:44;12.10;99.90
20891;DHT22;10605;52.968;8.844;2022-09-30T17:48:12;12.10;99.90
20891;DHT22;10605;52.968;8.844;2022-09-30T17:50:40;12.10;99.90
20891;DHT22;10605;52.968;8.844;2022-09-30T17:53:13;12.00;99.90
20891;DHT22;10605;52.968;8.844;2022-09-30T17:55:41;11.90;99.90
20891;DHT22;10605;52.968;8.844;2022-09-30T17:58:08;11.90;99.90
20891;DHT22;10605;52.968;8.844;2022-09-30T18:00:34;11.90;99.90
20891;DHT22;10605;52.968;8.844;2022-09-30T18:03:00;11.90;99.90
20891;DHT22;10605;52.968;8.844;2022-09-30T18:05:28;11.90;99.90
20891;DHT22;10605;52.968;8.844;2022-09-30T18:07:53;11.80;99.90
20891;DHT22;10605;52.968;8.844;2022-09-30T18:10:19;11.80;99.90
20891;DHT22;10605;52.968;8.844;2022-09-30T18:12:45;11.80;99.90
20891;DHT22;10605;52.968;8.844;2022-09-30T18:15:16;11.70;99.90
20891;DHT22;10605;52.968;8.844;2022-09-30T18:17:42;11.70;99.90
20891;DHT22;10605;52.968;8.844;2022-09-30T18:20:09;11.70;99.90
20891;DHT22;10605;52.968;8.844;2022-09-30T18:22:35;11.60;99.90
20891;DHT22;10605;52.968;8.844;2022-09-30T18:25:03;11.60;99.90
20891;DHT22;10605;52.968;8.844;2022-09-30T18:27:45;11.50;99.90
20891;DHT22;10605;52.968;8.844;2022-09-30T18:30:11;11.40;99.90
20891;DHT22;10605;52.968;8.844;2022-09-30T18:32:37;11.40;99.90
20891;DHT22;10605;52.968;8.844;2022-09-30T18:35:04;11.40;99.90
20891;DHT22;10605;52.968;8.844;2022-09-30T18:37:34;11.40;99.90
20891;DHT22;10605;52.968;8.844;2022-09-30T18:40:00;11.30;99.90
20891;DHT22;10605;52.968;8.844;2022-09-30T18:42:26;11.30;99.90
20891;DHT22;10605;52.968;8.844;2022-09-30T18:44:52;11.30;99.90
20891;DHT22;10605;52.968;8.844;2022-09-30T18:47:19;11.30;99.90
20891;DHT22;10605;52.968;8.844;2022-09-30T18:49:44;11.30;99.90
20891;DHT22;10605;52.968;8.844;2022-09-30T18:52:10;11.30;99.90
20891;DHT22;10605;52.968;8.844;2022-09-30T18:54:39;11.30;99.90
20891;DHT22;10605;52.968;8.844;2022-09-30T18:57:04;11.20;99.90
20891;DHT22;10605;52.968;8.844;2022-09-30T18:59:30;11.20;99.90
20891;DHT22;10605;52.968;8.844;2022-09-30T19:01:56;11.20;99.90
20891;DHT22;10605;52.968;8.844;2022-09-30T19:04:23;11.20;99.90
20891;DHT22;10605;52.968;8.844;2022-09-30T19:06:49;11.20;99.90
20891;DHT22;10605;52.968;8.844;2022-09-30T19:09:15;11.10;99.90
20891;DHT22;10605;52.968;8.844;2022-09-30T19:11:41;11.10;99.90
20891;DHT22;10605;52.968;8.844;2022-09-30T19:14:17;11.10;99.90
20891;DHT22;10605;52.968;8.844;2022-09-30T19:16:46;11.00;99.90
20891;DHT22;10605;52.968;8.844;2022-09-30T19:19:12;11.00;99.90
20891;DHT22;10605;52.968;8.844;2022-09-30T19:21:38;11.00;99.90
20891;DHT22;10605;52.968;8.844;2022-09-30T19:24:06;11.00;99.90
20891;DHT22;10605;52.968;8.844;2022-09-30T19:26:36;10.90;99.90
20891;DHT22;10605;52.968;8.844;2022-09-30T19:29:04;10.90;99.90
20891;DHT22;10605;52.968;8.844;2022-09-30T19:31:30;10.90;99.90
20891;DHT22;10605;52.968;8.844;2022-09-30T19:33:57;10.80;99.90
20891;DHT22;10605;52.968;8.844;2022-09-30T19:36:23;10.80;99.90
20891;DHT22;10605;52.968;8.844;2022-09-30T19:38:51;10.80;99.90
20891;DHT22;10605;52.968;8.844;2022-09-30T19:41:17;10.70;99.90
20891;DHT22;10605;52.968;8.844;2022-09-30T19:43:47;10.80;99.90
20891;DHT22;10605;52.968;8.844;2022-09-30T19:46:13;10.80;99.90
20891;DHT22;10605;52.968;8.844;2022-09-30T19:48:39;10.80;99.90
20891;DHT22;10605;52.968;8.844;2022-09-30T19:51:12;10.80;99.90
20891;DHT22;10605;52.968;8.844;2022-09-30T19:53:41;10.70;99.90
20891;DHT22;10605;52.968;8.844;2022-09-30T19:56:25;10.70;99.90
20891;DHT22;10605;52.968;8.844;2022-09-30T19:58:52;10.70;99.90
20891;DHT22;10605;52.968;8.844;2022-09-30T20:01:22;10.60;99.90
20891;DHT22;10605;52.968;8.844;2022-09-30T20:03:51;10.60;99.90
20891;DHT22;10605;52.968;8.844;2022-09-30T20:06:18;10.60;99.90
20891;DHT22;10605;52.968;8.844;2022-09-30T20:08:49;10.60;99.90
20891;DHT22;10605;52.968;8.844;2022-09-30T20:11:17;10.60;99.90
20891;DHT22;10605;52.968;8.844;2022-09-30T20:13:50;10.60;99.90
20891;DHT22;10605;52.968;8.844;2022-09-30T20:16:36;10.50;99.90
20891;DHT22;10605;52.968;8.844;2022-09-30T20:19:02;10.60;99.90
20891;DHT22;10605;52.968;8.844;2022-09-30T20:21:28;10.70;99.90
20891;DHT22;10605;52.968;8.844;2022-09-30T20:23:54;10.70;99.90
20891;DHT22;10605;52.968;8.844;2022-09-30T20:26:20;10.70;99.90
20891;DHT22;10605;52.968;8.844;2022-09-30T20:28:46;10.70;99.90
20891;DHT22;10605;52.968;8.844;2022-09-30T20:31:14;10.70;99.90
20891;DHT22;10605;52.968;8.844;2022-09-30T20:33:41;10.70;99.90
20891;DHT22;10605;52.968;8.844;2022-09-30T20:36:09;10.70;99.90
20891;DHT22;10605;52.968;8.844;2022-09-30T20:38:38;10.70;99.90
20891;DHT22;10605;52.968;8.844;2022-09-30T20:41:04;10.70;99.90
20891;DHT22;10605;52.968;8.844;2022-09-30T20:43:31;10.70;99.90
20891;DHT22;10605;52.968;8.844;2022-09-30T20:46:02;10.70;99.90
20891;DHT22;10605;52.968;8.844;2022-09-30T20:48:35;10.60;99.90
20891;DHT22;10605;52.968;8.844;2022-09-30T20:51:09;10.70;99.90
20891;DHT22;10605;52.968;8.844;2022-09-30T20:53:36;10.70;99.90
20891;DHT22;10605;52.968;8.844;2022-09-30T20:56:07;10.60;99.90
20891;DHT22;10605;52.968;8.844;2022-09-30T20:58:34;10.60;99.90
20891;DHT22;10605;52.968;8.844;2022-09-30T21:01:01;10.70;99.90
20891;DHT22;10605;52.968;8.844;2022-09-30T21:03:28;10.70;99.90
20891;DHT22;10605;52.968;8.844;2022-09-30T21:05:55;10.70;99.90
20891;DHT22;10605;52.968;8.844;2022-09-30T21:08:21;10.70;99.90
20891;DHT22;10605;52.968;8.844;2022-09-30T21:11:00;10.70;99.90
20891;DHT22;10605;52.968;8.844;2022-09-30T21:13:45;10.80;99.90
20891;DHT22;10605;52.968;8.844;2022-09-30T21:16:16;10.80;99.90
20891;DHT22;10605;52.968;8.844;2022-09-30T21:18:43;10.90;99.90
20891;DHT22;10605;52.968;8.844;2022-09-30T21:21:14;10.90;99.90
20891;DHT22;10605;52.968;8.844;2022-09-30T21:23:48;10.90;99.90
20891;DHT22;10605;52.968;8.844;2022-09-30T21:26:17;11.00;99.90
20891;DHT22;10605;52.968;8.844;2022-09-30T21:28:46;11.00;99.90
20891;DHT22;10605;52.968;8.844;2022-09-30T21:31:17;11.00;99.90
20891;DHT22;10605;52.968;8.844;2022-09-30T21:33:49;11.00;99.90
20891;DHT22;10605;52.968;8.844;2022-09-30T21:36:15;11.00;99.90
20891;DHT22;10605;52.968;8.844;2022-09-30T21:38:42;11.00;99.90
20891;DHT22;10605;52.968;8.844;2022-09-30T21:41:08;11.00;99.90
20891;DHT22;10605;52.968;8.844;2022-09-30T21:43:38;11.00;99.90
20891;DHT22;10605;52.968;8.844;2022-09-30T21:46:06;11.00;99.90
20891;DHT22;10605;52.968;8.844;2022-09-30T21:48:33;11.00;99.90
20891;DHT22;10605;52.968;8.844;2022-09-30T21:51:03;11.10;99.90
20891;DHT22;10605;52.968;8.844;2022-09-30T21:53:29;11.00;99.90
20891;DHT22;10605;52.968;8.844;2022-09-30T21:56:00;11.10;99.90
20891;DHT22;10605;52.968;8.844;2022-09-30T21:58:37;11.10;99.90
20891;DHT22;10605;52.968;8.844;2022-09-30T22:01:12;11.10;99.90
20891;DHT22;10605;52.968;8.844;2022-09-30T22:03:46;11.20;99.90